Time;durP1;ratioP1;P1;durP2;ratioP2;P2;SDS_P1;SDS_P2;PMS_P1;PMS_P2;Temp;Humidity;BMP_temperature;BMP_pressure;BME280_temperature;BME280_humidity;BME280_pressure;Samples;Min_cycle;Max_cycle;Signal;HPM_P1;HPM_P2
2024/03/29 00:02:13;;;;;;;15.00;2.00;;;;;;;14.22;100.00;98350.19;5135979;27;20066;-95
2024/03/29 00:04:41;;;;;;;21.88;2.53;;;;;;;14.24;100.00;98358.16;5136454;27;20573;-94
2024/03/29 00:07:09;;;;;;;17.40;3.28;;;;;;;13.84;100.00;98294.09;5136264;27;20047;-94
2024/03/29 00:09:37;;;;;;;11.48;2.85;;;;;;;13.92;100.00;98297.28;5135979;27;20071;-96
2024/03/29 00:12:04;;;;;;;17.48;2.38;;;;;;;13.67;100.00;98256.63;5135164;27;20078;-94
2024/03/29 00:14:31;;;;;;;14.27;2.42;;;;;;;14.37;100.00;98376.19;5135471;27;20068;-95
2024/03/29 00:16:57;;;;;;;20.85;3.13;;;;;;;14.35;100.00;98385.22;5135685;27;20047;-96
2024/03/29 00:19:23;;;;;;;11.18;2.88;;;;;;;14.03;100.00;98323.50;5135988;27;20035;-96
2024/03/29 00:21:50;;;;;;;11.50;2.15;;;;;;;13.89;100.00;98309.91;5135434;27;20046;-96
2024/03/29 00:24:25;;;;;;;18.90;3.88;;;;;;;14.38;100.00;98379.75;5138799;27;20047;-95
2024/03/29 00:26:52;;;;;;;15.75;2.17;;;;;;;14.35;100.00;98377.22;5146798;27;20069;-94
2024/03/29 00:29:18;;;;;;;17.23;2.20;;;;;;;13.94;100.00;98297.19;5159383;27;20023;-96
2024/03/29 00:31:45;;;;;;;13.82;2.83;;;;;;;14.23;100.00;98351.09;5159036;27;20111;-96
2024/03/29 00:34:11;;;;;;;18.67;2.78;;;;;;;13.56;100.00;98259.81;5159201;27;20023;-96
2024/03/29 00:36:41;;;;;;;8.48;2.10;;;;;;;14.32;100.00;98388.94;5156519;27;20043;-94
2024/03/29 00:39:11;;;;;;;16.98;2.47;;;;;;;14.46;100.00;98393.59;5155407;27;20043;-96
2024/03/29 00:41:37;;;;;;;17.75;2.28;;;;;;;14.45;100.00;98381.19;5156483;27;20043;-96
2024/03/29 00:44:03;;;;;;;18.35;2.38;;;;;;;14.12;100.00;98306.16;5146824;27;20047;-96
2024/03/29 00:46:29;;;;;;;13.40;2.65;;;;;;;13.79;100.00;98260.50;5141605;27;20035;-92
2024/03/29 00:48:55;;;;;;;19.25;3.00;;;;;;;13.77;100.00;98272.16;5144862;27;20040;-94
2024/03/29 00:51:21;;;;;;;12.82;2.38;;;;;;;14.44;100.00;98391.94;5146832;27;20046;-94
2024/03/29 00:53:48;;;;;;;16.08;3.03;;;;;;;14.23;100.00;98345.75;5141654;27;20138;-95
2024/03/29 00:56:16;;;;;;;17.95;3.42;;;;;;;14.11;100.00;98321.28;5137890;27;20043;-95
2024/03/29 00:58:42;;;;;;;10.35;1.85;;;;;;;14.57;100.00;98385.97;5137419;27;20053;-96
2024/03/29 01:01:08;;;;;;;13.98;2.53;;;;;;;13.88;100.00;98279.66;5138006;27;20125;-96
2024/03/29 01:03:37;;;;;;;8.95;2.22;;;;;;;13.83;100.00;98276.31;5138438;27;20040;-96
2024/03/29 01:06:04;;;;;;;15.57;3.50;;;;;;;13.79;100.00;98274.72;5137343;27;20039;-95
2024/03/29 01:08:30;;;;;;;20.73;2.25;;;;;;;14.49;100.00;98396.16;5127165;27;20050;-96
2024/03/29 01:10:56;;;;;;;14.45;2.45;;;;;;;14.50;100.00;98399.69;5115085;28;20068;-95
2024/03/29 01:13:25;;;;;;;12.32;2.65;;;;;;;14.14;100.00;98371.97;5115346;28;20614;-96
2024/03/29 01:15:51;;;;;;;19.75;2.90;;;;;;;14.42;100.00;98409.88;5118070;28;20050;-96
2024/03/29 01:18:17;;;;;;;11.40;2.58;;;;;;;13.84;100.00;98295.91;5135517;28;20047;-96
2024/03/29 01:20:43;;;;;;;11.65;2.40;;;;;;;14.40;100.00;98423.34;5137625;28;20138;-95
2024/03/29 01:23:09;;;;;;;15.73;3.10;;;;;;;14.48;100.00;98414.94;5136833;28;20039;-92
2024/03/29 01:25:35;;;;;;;12.40;2.60;;;;;;;14.18;100.00;98376.25;5140592;28;20043;-94
2024/03/29 01:28:06;;;;;;;16.67;2.40;;;;;;;14.43;100.00;98436.56;5141064;27;20051;-94
2024/03/29 01:30:34;;;;;;;11.90;2.20;;;;;;;14.54;100.00;98420.00;5138409;28;20130;-96
2024/03/29 01:33:00;;;;;;;18.15;2.83;;;;;;;14.51;100.00;98425.50;5137075;28;20046;-95
2024/03/29 01:35:27;;;;;;;11.18;2.05;;;;;;;14.55;100.00;98430.66;5136816;27;20036;-95
2024/03/29 01:37:54;;;;;;;24.05;2.78;;;;;;;14.17;100.00;98382.50;5137444;28;20047;-95
2024/03/29 01:40:20;;;;;;;16.25;2.55;;;;;;;14.39;100.00;98432.31;5137260;27;20050;-95
2024/03/29 01:42:46;;;;;;;15.20;2.47;;;;;;;13.62;100.00;98291.59;5137504;28;20043;-96
2024/03/29 01:45:12;;;;;;;12.88;2.00;;;;;;;14.39;100.00;98429.63;5136713;27;20072;-95
2024/03/29 01:47:40;;;;;;;16.75;2.15;;;;;;;14.41;100.00;98427.75;5136334;27;20082;-95
2024/03/29 01:50:09;;;;;;;11.65;2.35;;;;;;;14.44;100.00;98435.59;5136124;27;20039;-96
2024/03/29 01:52:35;;;;;;;12.73;2.42;;;;;;;14.14;100.00;98390.69;5136109;27;20046;-95
2024/03/29 01:55:01;;;;;;;16.73;2.22;;;;;;;14.43;100.00;98428.53;5136139;28;20047;-95
2024/03/29 01:57:28;;;;;;;20.45;2.47;;;;;;;13.80;100.00;98335.28;5135835;27;20061;-95
2024/03/29 01:59:54;;;;;;;8.82;1.77;;;;;;;14.43;100.00;98431.22;5138744;27;20043;-96
2024/03/29 02:02:22;;;;;;;12.75;2.92;;;;;;;13.78;100.00;98302.41;5141005;27;20039;-96
2024/03/29 02:04:50;;;;;;;16.95;2.40;;;;;;;14.47;100.00;98434.63;5140214;27;20043;-96
2024/03/29 02:07:17;;;;;;;13.45;2.25;;;;;;;14.34;100.00;98419.16;5140701;27;20046;-94
2024/03/29 02:09:45;;;;;;;11.82;2.22;;;;;;;13.84;100.00;98309.28;5142659;27;20063;-96
2024/03/29 02:12:13;;;;;;;13.10;2.35;;;;;;;13.75;100.00;98298.09;5141228;27;20061;-96
2024/03/29 02:14:41;;;;;;;18.02;2.58;;;;;;;13.98;100.00;98341.53;5141796;27;20043;-96
2024/03/29 02:17:09;;;;;;;15.63;1.98;;;;;;;13.91;100.00;98314.25;5141393;27;20134;-96
2024/03/29 02:19:35;;;;;;;18.65;2.50;;;;;;;14.55;100.00;98429.78;5142063;27;20047;-95
2024/03/29 02:22:07;;;;;;;11.75;2.45;;;;;;;14.15;100.00;98387.06;5147060;27;20119;-96
2024/03/29 02:24:35;;;;;;;8.77;1.80;;;;;;;13.96;100.00;98354.97;5142921;27;20126;-96
2024/03/29 02:27:02;;;;;;;14.27;2.65;;;;;;;14.08;100.00;98374.06;5140482;27;20057;-96
2024/03/29 02:29:30;;;;;;;11.82;2.10;;;;;;;14.31;100.00;98400.59;5138588;27;20569;-96
2024/03/29 02:31:56;;;;;;;16.17;1.95;;;;;;;14.45;100.00;98423.97;5138443;27;20040;-95
2024/03/29 02:34:25;;;;;;;20.83;2.58;;;;;;;14.50;100.00;98431.78;5141889;27;20043;-96
2024/03/29 02:36:51;;;;;;;24.83;3.38;;;;;;;14.11;100.00;98364.09;5142681;27;20039;-96
2024/03/29 02:39:26;;;;;;;15.02;1.95;;;;;;;13.85;100.00;98325.22;5142009;27;20081;-96
2024/03/29 02:41:54;;;;;;;16.75;2.70;;;;;;;13.77;100.00;98322.94;5143921;27;20078;-96
2024/03/29 02:44:20;;;;;;;13.13;1.90;;;;;;;13.73;100.00;98325.81;5141508;27;20039;-96
2024/03/29 02:46:47;;;;;;;10.90;2.78;;;;;;;13.63;100.00;98309.34;5138973;27;20047;-96
2024/03/29 02:49:13;;;;;;;15.38;2.42;;;;;;;13.63;100.00;98317.34;5139714;27;20035;-96
2024/03/29 02:51:39;;;;;;;7.70;1.60;;;;;;;14.37;100.00;98443.06;5145090;27;20142;-95
2024/03/29 02:54:05;;;;;;;15.23;2.60;;;;;;;13.91;100.00;98373.06;5142439;27;20059;-95
2024/03/29 02:56:31;;;;;;;22.73;2.42;;;;;;;14.35;100.00;98449.44;5141584;27;20046;-96
2024/03/29 02:59:00;;;;;;;18.15;1.92;;;;;;;14.25;100.00;98449.03;5147282;27;20039;-96
2024/03/29 03:04:11;;;;;;;11.90;2.28;;;;;;;13.53;100.00;98340.09;5039952;28;20029;-95
2024/03/29 03:06:37;;;;;;;12.18;3.10;;;;;;;14.16;100.00;98463.69;5023474;28;20081;-95
2024/03/29 03:12:02;;;;;;;14.70;2.63;;;;;;;14.15;100.00;98466.41;5179971;27;20381;-95
2024/03/29 03:14:28;;;;;;;14.35;2.05;;;;;;;14.16;100.00;98468.16;5141803;27;20042;-96
2024/03/29 03:16:54;;;;;;;11.68;2.03;;;;;;;14.28;100.00;98472.06;5138810;27;20047;-96
2024/03/29 03:19:21;;;;;;;17.20;1.98;;;;;;;14.29;100.00;98469.34;5140244;27;20095;-95
2024/03/29 03:21:47;;;;;;;13.75;2.60;;;;;;;13.47;100.00;98357.28;5141080;27;20074;-96
2024/03/29 03:24:13;;;;;;;16.38;2.70;;;;;;;14.11;100.00;98455.00;5136857;27;20470;-96
2024/03/29 03:26:40;;;;;;;14.30;1.95;;;;;;;13.49;100.00;98336.72;5136067;27;20046;-96
2024/03/29 03:29:10;;;;;;;13.38;2.45;;;;;;;14.30;100.00;98486.25;5137720;27;20042;-96
2024/03/29 03:31:36;;;;;;;9.80;2.00;;;;;;;14.29;100.00;98471.13;5141291;27;20043;-95
2024/03/29 03:34:02;;;;;;;10.63;2.22;;;;;;;14.14;100.00;98468.25;5141041;27;20133;-96
2024/03/29 03:36:29;;;;;;;7.70;2.33;;;;;;;13.48;100.00;98356.31;5140711;27;20054;-96
2024/03/29 03:38:55;;;;;;;11.38;2.00;;;;;;;13.83;100.00;98431.34;5136686;27;20047;-95
2024/03/29 03:41:22;;;;;;;18.92;2.17;;;;;;;14.05;100.00;98475.81;5136122;27;20063;-95
2024/03/29 03:43:48;;;;;;;10.90;2.00;;;;;;;14.13;100.00;98484.34;5133450;27;20043;-93
2024/03/29 03:46:15;;;;;;;13.82;1.92;;;;;;;13.73;100.00;98416.69;5118031;28;20585;-96
2024/03/29 03:48:41;;;;;;;14.27;1.98;;;;;;;14.22;100.00;98496.41;5130203;27;20063;-95
2024/03/29 03:51:07;;;;;;;12.93;1.92;;;;;;;14.26;100.00;98479.28;5135642;27;20074;-94
2024/03/29 03:53:33;;;;;;;14.45;2.08;;;;;;;13.99;100.00;98436.88;5132240;28;20429;-96
2024/03/29 03:55:59;;;;;;;10.73;2.72;;;;;;;13.80;100.00;98412.78;5133320;28;20054;-96
2024/03/29 03:58:25;;;;;;;11.07;1.83;;;;;;;14.09;100.00;98456.00;5132505;28;20143;-96
2024/03/29 04:00:51;;;;;;;12.65;1.70;;;;;;;13.51;100.00;98372.22;5135059;27;20047;-96
2024/03/29 04:03:19;;;;;;;11.38;2.13;;;;;;;13.61;100.00;98374.47;5135109;27;20043;-96
2024/03/29 04:05:45;;;;;;;6.50;2.17;;;;;;;13.41;100.00;98372.72;5135534;27;20035;-95
2024/03/29 04:08:11;;;;;;;14.60;3.33;;;;;;;14.11;100.00;98503.13;5135709;27;20037;-96
2024/03/29 04:10:38;;;;;;;16.80;2.63;;;;;;;14.13;100.00;98490.56;5136717;27;20151;-95
2024/03/29 04:13:04;;;;;;;9.85;2.08;;;;;;;14.12;100.00;98504.00;5137490;27;20078;-96
2024/03/29 04:15:32;;;;;;;14.85;2.05;;;;;;;14.17;100.00;98497.50;5137093;27;20551;-94
2024/03/29 04:18:02;;;;;;;8.82;2.88;;;;;;;14.16;100.00;98500.22;5144728;27;20047;-94
2024/03/29 04:20:30;;;;;;;9.95;2.67;;;;;;;14.17;100.00;98499.31;5142684;27;20050;-94
2024/03/29 04:22:57;;;;;;;12.35;2.20;;;;;;;14.09;100.00;98496.97;5124991;27;20043;-96
2024/03/29 04:25:23;;;;;;;12.45;2.28;;;;;;;13.66;100.00;98401.84;5121019;27;20092;-96
2024/03/29 04:27:52;;;;;;;11.52;1.92;;;;;;;14.23;100.00;98498.16;5121182;27;20043;-96
2024/03/29 04:30:18;;;;;;;3.95;1.50;;;;;;;13.48;100.00;98391.06;5121884;27;20039;-96
2024/03/29 04:32:44;;;;;;;10.75;1.42;;;;;;;13.77;100.00;98435.19;5118814;28;20043;-96
2024/03/29 04:35:12;;;;;;;14.60;2.35;;;;;;;14.25;100.00;98501.63;5117407;28;20432;-96
2024/03/29 04:37:39;;;;;;;11.20;1.65;;;;;;;14.20;100.00;98517.88;5118956;28;20035;-96
2024/03/29 04:40:12;;;;;;;9.77;1.48;;;;;;;13.76;100.00;98437.91;5119110;28;20390;-96
2024/03/29 04:42:41;;;;;;;;;;;;;;;14.24;100.00;98521.28;5120488;28;20055;-95
2024/03/29 04:45:07;;;;;;;8.73;1.63;;;;;;;13.95;100.00;98486.06;5126200;28;19919;-92
2024/03/29 04:47:34;;;;;;;15.68;1.90;;;;;;;13.51;100.00;98414.97;5135182;28;20044;-95
2024/03/29 04:50:03;;;;;;;7.78;2.05;;;;;;;14.29;100.00;98536.19;5130823;28;20044;-94
2024/03/29 04:52:29;;;;;;;16.05;1.65;;;;;;;13.92;100.00;98486.19;5122074;28;20044;-94
2024/03/29 04:55:04;;;;;;;20.63;2.33;;;;;;;13.56;100.00;98430.78;5123673;28;20048;-96
2024/03/29 04:57:34;;;;;;;12.90;1.75;;;;;;;13.61;100.00;98444.81;5126704;28;20024;-95
2024/03/29 05:00:03;;;;;;;13.30;2.17;;;;;;;13.62;100.00;98454.56;5125259;28;20063;-96
2024/03/29 05:02:30;;;;;;;17.00;2.25;;;;;;;14.32;100.00;98565.47;5130225;28;20138;-95
2024/03/29 05:04:58;;;;;;;13.25;2.78;;;;;;;13.66;100.00;98456.19;5132315;28;20031;-96
2024/03/29 05:07:24;;;;;;;18.98;2.35;;;;;;;13.71;100.00;98450.63;5130319;28;20043;-96
2024/03/29 05:10:11;;;;;;;;;;;;;;;14.47;100.00;98573.75;5131149;28;20035;-95
2024/03/29 05:12:39;;;;;;;21.45;2.30;;;;;;;13.60;100.00;98445.75;5120736;28;20379;-96
2024/03/29 05:15:06;;;;;;;15.73;2.00;;;;;;;14.45;100.00;98576.47;5117583;28;20052;-96
2024/03/29 05:17:32;;;;;;;12.55;2.67;;;;;;;13.82;100.00;98475.06;5118078;28;20046;-95
2024/03/29 05:19:58;;;;;;;12.27;2.15;;;;;;;14.41;100.00;98569.53;5123100;28;20047;-96
2024/03/29 05:22:25;;;;;;;18.33;2.45;;;;;;;14.36;100.00;98584.94;5119121;28;20043;-96
2024/03/29 05:24:56;;;;;;;12.80;2.45;;;;;;;13.85;100.00;98512.31;5120622;28;20104;-96
2024/03/29 05:27:23;;;;;;;12.13;2.58;;;;;;;14.37;100.00;98603.56;5120352;28;20079;-96
2024/03/29 05:29:51;;;;;;;10.15;2.10;;;;;;;14.36;100.00;98590.28;5123594;28;20044;-96
2024/03/29 05:32:23;;;;;;;9.07;2.53;;;;;;;14.34;100.00;98593.03;5122188;28;20043;-96
2024/03/29 05:34:53;;;;;;;17.95;2.33;;;;;;;13.72;100.00;98476.38;5124700;28;20043;-96
2024/03/29 05:37:22;;;;;;;;;;;;;;;14.35;100.00;98594.75;5129831;28;20039;-96
2024/03/29 05:39:49;;;;;;;8.88;2.03;;;;;;;14.45;100.00;98591.66;5125481;28;19919;-96
2024/03/29 05:42:17;;;;;;;16.92;1.88;;;;;;;14.50;100.00;98598.53;5129632;28;20043;-96
2024/03/29 05:44:45;;;;;;;18.63;1.60;;;;;;;14.42;100.00;98571.28;5125986;28;20051;-96
2024/03/29 05:47:16;;;;;;;12.57;2.42;;;;;;;14.71;100.00;98594.03;5119265;28;20052;-95
2024/03/29 05:49:45;;;;;;;9.00;1.73;;;;;;;14.05;100.00;98468.66;5160386;22;20145;-94
2024/03/29 05:52:14;;;;;;;10.70;2.20;;;;;;;14.97;100.00;98586.59;5086020;28;20048;-96
2024/03/29 05:54:54;;;;;;;10.55;1.85;;;;;;;14.45;100.00;98472.13;5084593;28;20044;-96
2024/03/29 05:57:30;;;;;;;13.93;1.95;;;;;;;14.99;100.00;98590.06;5087345;28;20046;-94
2024/03/29 05:59:58;;;;;;;;;;;;;;;14.97;100.00;98590.13;5099854;28;20047;-95
2024/03/29 06:02:28;;;;;;;13.98;2.63;;;;;;;14.64;100.00;98480.19;5082855;28;19919;-95
2024/03/29 06:04:54;;;;;;;13.13;2.58;;;;;;;15.37;100.00;98588.16;5086805;28;20043;-95
2024/03/29 06:07:20;;;;;;;13.93;1.98;;;;;;;14.61;100.00;98480.31;5101864;28;20020;-92
2024/03/29 06:09:47;;;;;;;9.15;1.88;;;;;;;14.96;100.00;98475.94;5084247;28;20033;-95
2024/03/29 06:12:13;;;;;;;13.93;1.80;;;;;;;15.67;100.00;98594.78;5093499;28;20028;-94
2024/03/29 06:17:36;;;;;;;12.70;2.10;;;;;;;15.88;100.00;98587.50;5114422;27;1617086;-96
2024/03/29 06:20:04;;;;;;;13.98;2.10;;;;;;;15.88;100.00;98593.72;5151637;27;20043;-94
2024/03/29 06:22:33;;;;;;;14.93;2.95;;;;;;;15.20;100.00;98519.38;5144900;27;20047;-96
2024/03/29 06:24:59;;;;;;;12.95;2.05;;;;;;;14.81;100.00;98479.34;5138988;27;20047;-96
2024/03/29 06:27:25;;;;;;;19.95;2.42;;;;;;;15.41;100.00;98597.78;5130527;27;20110;-96
2024/03/29 06:29:51;;;;;;;11.77;2.17;;;;;;;15.37;100.00;98606.06;5141642;27;20057;-96
2024/03/29 06:32:18;;;;;;;13.30;2.95;;;;;;;14.45;100.00;98493.53;5120376;22;20520;-96
2024/03/29 06:34:54;;;;;;;16.30;1.98;;;;;;;15.23;100.00;98609.44;5050881;28;20041;-96
2024/03/29 06:37:22;;;;;;;14.55;2.00;;;;;;;15.12;100.00;98607.28;5039220;28;20054;-94
2024/03/29 06:39:48;;;;;;;19.13;1.85;;;;;;;15.31;100.00;98614.41;5016785;28;20043;-95
2024/03/29 06:42:14;;;;;;;9.40;1.92;;;;;;;14.73;100.00;98497.63;5029433;28;20065;-95
2024/03/29 06:50:51;;;;;;;12.60;1.55;;;;;;;15.41;100.00;98602.28;4991693;28;20070;-96
2024/03/29 06:53:21;;;;;;;12.02;1.95;;;;;;;15.06;100.00;98518.31;4971113;28;20047;-96
2024/03/29 06:55:50;;;;;;;19.00;1.92;;;;;;;15.25;100.00;98587.94;4964503;28;20035;-95
2024/03/29 06:58:16;;;;;;;12.98;3.20;;;;;;;15.15;100.00;98550.00;4958030;28;20431;-95
2024/03/29 07:00:45;;;;;;;10.15;1.60;;;;;;;15.69;100.00;98588.38;4957561;28;20047;-96
2024/03/29 07:03:11;;;;;;;13.75;2.08;;;;;;;15.03;100.00;98489.91;4975492;28;20039;-94
2024/03/29 07:05:37;;;;;;;21.00;2.55;;;;;;;15.71;100.00;98591.00;4968893;28;20051;-94
2024/03/29 07:08:05;;;;;;;13.77;2.20;;;;;;;15.85;100.00;98585.81;4965663;28;20047;-94
2024/03/29 07:10:31;;;;;;;10.20;1.80;;;;;;;15.48;100.00;98509.06;4962446;28;20051;-95
2024/03/29 07:12:57;;;;;;;12.63;2.35;;;;;;;15.96;100.00;98572.72;4957913;28;20054;-96
2024/03/29 07:15:23;;;;;;;7.82;1.98;;;;;;;16.03;100.00;98575.97;4955317;28;20138;-94
2024/03/29 07:17:50;;;;;;;9.88;1.67;;;;;;;15.70;100.00;98539.19;4953570;28;20118;-93
2024/03/29 07:20:16;;;;;;;12.35;2.08;;;;;;;16.08;100.00;98583.75;4955130;28;20097;-94
2024/03/29 07:22:42;;;;;;;13.40;1.58;;;;;;;16.11;100.00;98584.47;4957658;28;20035;-95
2024/03/29 07:25:10;;;;;;;11.32;1.85;;;;;;;15.53;100.00;98482.91;4963136;28;20047;-96
2024/03/29 07:27:37;;;;;;;9.93;1.35;;;;;;;16.21;100.00;98587.53;4968158;28;20062;-96
2024/03/29 07:30:07;;;;;;;8.32;1.42;;;;;;;15.94;100.00;98522.78;4957960;29;20074;-96
2024/03/29 07:32:33;;;;;;;9.38;2.20;;;;;;;16.50;100.00;98577.91;4956956;28;20055;-96
2024/03/29 07:35:04;;;;;;;10.27;1.30;;;;;;;16.63;100.00;98584.34;4961404;28;20114;-96
2024/03/29 07:37:31;;;;;;;21.25;1.75;;;;;;;16.01;100.00;98443.75;4961564;29;20043;-96
2024/03/29 07:40:01;;;;;;;11.30;1.42;;;;;;;16.20;100.00;98457.03;4962541;29;20043;-96
2024/03/29 07:42:35;;;;;;;;;;;;;;;16.93;100.00;98561.28;4965889;29;20027;-95
2024/03/29 07:45:08;;;;;;;17.33;2.58;;;;;;;16.50;100.00;98497.38;4979674;28;19953;-96
2024/03/29 07:47:34;;;;;;;12.38;1.73;;;;;;;17.06;100.00;98566.81;4938015;29;20039;-96
2024/03/29 07:50:00;;;;;;;15.73;2.22;;;;;;;17.09;100.00;98575.59;4956189;28;20088;-95
2024/03/29 07:52:26;;;;;;;13.27;2.15;;;;;;;17.16;100.00;98560.84;4955002;29;20137;-96
2024/03/29 07:54:59;;;;;;;11.85;2.92;;;;;;;16.49;100.00;98457.22;4958749;28;20142;-96
2024/03/29 07:57:25;;;;;;;13.98;2.67;;;;;;;17.27;100.00;98564.75;4955236;29;20055;-95
2024/03/29 07:59:52;;;;;;;13.82;2.05;;;;;;;17.35;100.00;98562.44;4945473;29;20059;-96
2024/03/29 08:02:18;;;;;;;12.13;2.47;;;;;;;17.40;100.00;98565.75;4947720;29;20571;-96
2024/03/29 08:04:47;;;;;;;11.13;2.33;;;;;;;16.53;100.00;98473.06;4955605;28;20047;-96
2024/03/29 08:07:13;;;;;;;20.50;2.47;;;;;;;17.13;100.00;98570.88;4958756;29;20058;-96
2024/03/29 08:09:40;;;;;;;16.85;2.53;;;;;;;16.73;100.00;98460.34;4957923;29;20525;-95
2024/03/29 08:12:08;;;;;;;12.68;2.42;;;;;;;17.79;100.00;98567.91;4954169;29;20059;-96
2024/03/29 08:14:37;;;;;;;9.13;2.00;;;;;;;18.14;100.00;98567.63;4950824;29;20071;-96
2024/03/29 08:17:18;;;;;;;18.08;2.40;;;;;;;17.93;100.00;98458.63;4955779;28;20557;-96
2024/03/29 08:19:45;;;;;;;13.43;2.08;;;;;;;18.70;100.00;98561.50;4953281;28;20043;-95
2024/03/29 08:22:11;;;;;;;11.27;3.15;;;;;;;18.37;100.00;98560.84;4943821;29;20106;-96
2024/03/29 08:24:37;;;;;;;10.35;1.63;;;;;;;18.81;100.00;98557.19;4947984;29;20495;-95
2024/03/29 08:27:03;;;;;;;14.98;2.45;;;;;;;19.18;100.00;98565.56;4946187;28;20066;-96
2024/03/29 08:29:29;;;;;;;14.18;1.95;;;;;;;19.23;100.00;98562.56;4955812;29;20578;-96
2024/03/29 08:31:55;;;;;;;11.25;2.17;;;;;;;19.41;100.00;98571.28;4946342;29;20050;-96
2024/03/29 08:34:28;;;;;;;11.55;2.05;;;;;;;18.61;100.00;98544.97;4944955;29;20039;-96
2024/03/29 08:36:56;;;;;;;9.35;2.15;;;;;;;19.12;100.00;98574.06;4953522;29;20044;-94
2024/03/29 08:39:22;;;;;;;13.70;2.22;;;;;;;18.72;100.00;98466.16;4966675;28;20065;-94
2024/03/29 08:41:48;;;;;;;11.48;1.35;;;;;;;18.96;100.00;98479.03;4954347;29;20040;-95
2024/03/29 08:44:17;;;;;;;7.88;1.65;;;;;;;19.78;100.00;98577.81;4947193;29;20077;-96
2024/03/29 08:46:46;;;;;;;18.67;2.30;;;;;;;19.56;100.00;98512.75;4949127;29;20043;-96
2024/03/29 08:49:13;;;;;;;9.50;1.88;;;;;;;19.34;100.00;98507.94;4948086;29;20067;-96
2024/03/29 08:51:40;;;;;;;5.65;1.33;;;;;;;18.91;100.00;98457.78;4946653;28;20051;-96
2024/03/29 08:54:10;;;;;;;16.25;2.40;;;;;;;19.90;100.00;98560.75;4954972;28;20066;-95
2024/03/29 08:56:37;;;;;;;13.02;2.03;;;;;;;20.14;100.00;98551.09;4949662;28;20054;-96
2024/03/29 08:59:07;;;;;;;7.05;1.70;;;;;;;20.39;100.00;98561.03;4955512;28;20085;-95
2024/03/29 09:01:33;;;;;;;7.97;1.75;;;;;;;19.97;100.00;98461.34;4945844;28;20129;-96
2024/03/29 09:03:59;;;;;;;13.43;1.98;;;;;;;20.33;100.00;98558.78;4953353;28;20043;-96
2024/03/29 09:06:25;;;;;;;14.68;2.17;;;;;;;19.80;100.00;98442.78;4939612;29;20499;-96
2024/03/29 09:08:53;;;;;;;9.45;1.63;;;;;;;20.51;100.00;98557.44;4937775;29;20077;-96
2024/03/29 09:11:19;;;;;;;13.35;2.75;;;;;;;20.49;100.00;98543.19;4941329;29;20507;-96
2024/03/29 09:13:45;;;;;;;9.38;1.73;;;;;;;20.25;100.00;98552.06;4934480;29;20138;-95
2024/03/29 09:16:11;;;;;;;8.40;1.15;;;;;;;19.81;100.00;98479.59;4950064;29;20035;-96
2024/03/29 09:18:37;;;;;;;10.43;2.20;;;;;;;20.13;100.00;98554.78;4959572;28;20065;-95
2024/03/29 09:21:04;;;;;;;12.35;1.95;;;;;;;19.20;100.00;98445.03;4955729;29;20039;-94
2024/03/29 09:23:30;;;;;;;7.68;1.52;;;;;;;19.95;100.00;98551.50;4948490;28;20118;-94
2024/03/29 09:25:57;;;;;;;9.65;1.52;;;;;;;19.65;100.00;98501.34;4946530;29;20059;-96
2024/03/29 09:28:24;;;;;;;11.05;1.45;;;;;;;19.63;100.00;98457.44;4941222;29;20039;-96
2024/03/29 09:30:50;;;;;;;9.65;2.08;;;;;;;19.68;100.00;98422.91;4941773;29;20043;-96
2024/03/29 09:33:16;;;;;;;10.90;1.52;;;;;;;20.10;100.00;98464.94;4947551;29;20035;-94
2024/03/29 09:35:43;;;;;;;9.60;2.13;;;;;;;20.14;100.00;98445.81;4939765;28;20054;-93
2024/03/29 09:38:09;;;;;;;11.40;2.00;;;;;;;20.80;100.00;98520.28;4938551;29;20207;-95
2024/03/29 09:40:36;;;;;;;10.18;1.90;;;;;;;20.96;87.18;98525.41;4939683;29;20058;-94
2024/03/29 09:43:04;;;;;;;6.97;1.90;;;;;;;20.44;78.43;98462.50;4945160;28;20043;-95
2024/03/29 09:45:34;;;;;;;9.85;1.50;;;;;;;20.49;69.92;98418.94;4943800;29;20106;-93
2024/03/29 09:48:03;;;;;;;11.32;1.35;;;;;;;21.23;63.31;98516.22;4936573;29;20116;-93
2024/03/29 09:50:30;;;;;;;8.25;1.00;;;;;;;20.82;61.48;98487.72;4936851;29;20089;-96
2024/03/29 09:52:57;;;;;;;17.40;2.15;;;;;;;21.20;60.42;98520.03;4940942;29;20054;-96
2024/03/29 09:55:28;;;;;;;13.18;1.95;;;;;;;21.35;56.53;98520.72;4941232;29;20035;-96
2024/03/29 09:57:54;;;;;;;13.55;1.83;;;;;;;21.52;56.30;98519.47;4945575;29;20624;-96
2024/03/29 10:00:22;;;;;;;8.38;1.65;;;;;;;21.71;54.58;98500.00;4942802;29;20042;-96
2024/03/29 10:02:50;;;;;;;9.27;2.20;;;;;;;21.73;55.19;98506.16;4939871;28;20039;-93
2024/03/29 10:05:16;;;;;;;17.13;2.15;;;;;;;21.20;52.40;98428.06;4941723;29;20074;-93
2024/03/29 10:07:47;;;;;;;17.30;3.30;;;;;;;21.42;54.02;98502.22;4943207;29;20043;-96
2024/03/29 10:10:14;;;;;;;11.38;2.42;;;;;;;20.94;53.36;98435.47;4946262;29;20134;-93
2024/03/29 10:13:03;;;;;;;17.98;2.33;;;;;;;21.37;52.33;98445.72;4940678;28;20051;-94
2024/03/29 10:15:37;;;;;;;16.80;2.08;;;;;;;21.61;51.67;98467.34;4934293;29;20051;-96
2024/03/29 10:18:09;;;;;;;11.93;2.33;;;;;;;21.70;52.26;98490.13;4944514;28;20039;-95
2024/03/29 10:20:35;;;;;;;18.70;1.90;;;;;;;21.90;52.36;98484.06;4936778;29;20044;-93
2024/03/29 10:23:03;;;;;;;12.60;2.13;;;;;;;21.43;52.38;98420.09;4940335;29;20035;-94
2024/03/29 10:25:34;;;;;;;14.80;2.50;;;;;;;21.48;52.32;98405.22;4935209;29;20043;-96
2024/03/29 10:28:04;;;;;;;13.65;2.13;;;;;;;21.98;51.99;98475.31;4936896;29;20043;-95
2024/03/29 10:30:31;;;;;;;15.07;2.35;;;;;;;21.66;51.14;98451.63;4940175;29;20828;-96
2024/03/29 10:32:57;;;;;;;17.02;2.88;;;;;;;21.89;51.02;98476.91;4934416;29;20130;-94
2024/03/29 10:35:25;;;;;;;22.27;2.50;;;;;;;21.55;51.16;98429.94;4938658;29;20047;-93
2024/03/29 10:37:56;;;;;;;15.35;2.85;;;;;;;21.10;50.83;98351.34;4953383;28;20047;-96
2024/03/29 10:40:27;;;;;;;11.68;2.22;;;;;;;21.33;51.13;98384.72;4952484;29;20149;-95
2024/03/29 10:45:50;;;;;;;15.45;2.03;;;;;;;21.30;51.77;98361.50;4947594;29;20137;-94
2024/03/29 10:48:17;;;;;;;13.88;2.13;;;;;;;21.90;51.57;98446.16;4948092;29;20043;-96
2024/03/29 10:50:45;;;;;;;17.88;2.88;;;;;;;21.50;52.37;98340.19;4947498;29;20495;-92
2024/03/29 10:53:15;;;;;;;12.02;1.80;;;;;;;22.08;51.02;98443.81;4934715;29;20514;-93
2024/03/29 10:55:43;;;;;;;12.65;2.92;;;;;;;22.08;50.67;98449.25;4943441;29;20043;-95
2024/03/29 10:58:11;;;;;;;20.63;2.95;;;;;;;21.39;50.53;98351.81;4941910;29;20047;-94
2024/03/29 11:00:42;;;;;;;18.48;2.80;;;;;;;21.37;50.58;98348.34;4940857;29;20504;-96
2024/03/29 11:03:17;;;;;;;17.80;1.60;;;;;;;21.79;51.14;98423.59;4946750;28;20046;-95
2024/03/29 11:05:46;;;;;;;26.75;2.13;;;;;;;22.08;51.48;98451.94;4951528;29;20035;-95
2024/03/29 11:08:16;;;;;;;19.95;2.60;;;;;;;21.98;51.52;98437.41;4945486;28;20074;-96
2024/03/29 11:10:53;;;;;;;18.60;2.42;;;;;;;22.01;51.30;98441.72;4945349;29;20063;-94
2024/03/29 11:13:33;;;;;;;22.75;2.97;;;;;;;21.17;50.23;98332.84;4951054;29;20056;-96
2024/03/29 11:16:01;;;;;;;15.10;1.98;;;;;;;21.22;49.11;98353.09;4945948;29;20073;-95
2024/03/29 11:18:33;;;;;;;23.27;2.45;;;;;;;21.59;48.87;98438.69;4949264;29;20047;-94
2024/03/29 11:21:02;;;;;;;23.10;2.55;;;;;;;21.33;49.52;98388.28;4952851;29;20134;-93
2024/03/29 11:23:36;;;;;;;18.35;3.17;;;;;;;21.75;50.48;98428.38;4945772;29;20142;-95
2024/03/29 11:26:29;;;;;;;16.92;2.38;;;;;;;22.03;50.89;98423.50;4941813;28;20039;-96
2024/03/29 11:28:59;;;;;;;19.48;2.28;;;;;;;21.99;50.52;98422.03;4948155;28;20070;-96
2024/03/29 11:31:27;;;;;;;22.92;3.00;;;;;;;21.71;50.14;98361.97;4946467;29;20055;-95
2024/03/29 11:33:57;;;;;;;19.30;3.15;;;;;;;22.07;49.65;98387.06;4946647;29;20043;-96
2024/03/29 11:36:28;;;;;;;19.67;2.90;;;;;;;21.59;49.90;98301.56;4946978;29;20051;-96
2024/03/29 11:38:57;;;;;;;19.55;2.45;;;;;;;22.17;49.12;98407.03;4959511;29;20047;-94
2024/03/29 11:41:32;;;;;;;15.20;2.85;;;;;;;22.28;49.40;98395.34;4939086;29;20027;-96
2024/03/29 11:44:04;;;;;;;14.77;2.95;;;;;;;22.03;49.81;98335.00;4946434;29;20057;-95